Meteo Giornale » Osservazioni meteo Algeria » Mascara-Ghriss
ore: 13:00 - Osservazioni Meteo Mascara-Ghriss
Lat. 35° 12' N Lon. 0° 9' E Alt. 514 metri s.l.m.
40 °C
Poco Nuvoloso
Temp. 24 Ore
23 °C
40 °C
Ovest/Nord-Ovest
14.8 Km/h
Dew point 12 °C
Umidità 19 %
Visibilità 10 Km
Il sole sorge alle ore 06:31
Il sole tramonta alle ore 19:26
| Data e Ora | Cielo e Fenomeni | T °C | DP °C | Um. % | Pres. hPa | Vis. km | Vento km/h | |
|---|---|---|---|---|---|---|---|---|
| Oggi h: 13:00 | Poco Nuvoloso | 40 | 12 | 19 | 1018 | 10 | O/NO 14.8 | |
| Oggi h: 12:00 | Poco Nuvoloso | 37 | 14 | 25 | 1019 | 10 | NO 14.8 | |
| Oggi h: 11:00 | Poco Nuvoloso | 34 | 17 | 36 | 1019 | 10 | N 14.8 | |
| Oggi h: 10:00 | Sereno | 33 | 18 | 41 | 1019 | 10 | N 7.4 | |
| Oggi h: 09:00 | Sereno | 30 | 20 | 55 | 1019 | 10 | N 1.8 | |
| Oggi h: 08:00 | Nuvoloso | 25 | 20 | 73 | 1019 | 10 | N 3.7 | |
| Oggi h: 07:00 | Nuvoloso | 23 | 19 | 78 | 1019 | 10 | N/NE 7.4 | |
| Oggi h: 06:00 | Nuvoloso | 24 | 19 | 73 | 1019 | 10 | N/NE 7.4 | |
| Oggi h: 05:00 | Nuvoloso | 25 | 19 | 69 | 1019 | 10 | S 7.4 | |
| Oggi h: 04:00 | Nuvoloso | 24 | 20 | 78 | 1019 | 10 | N 5.5 | |
| Oggi h: 03:00 | Nuvoloso | 24 | 19 | 73 | 1020 | 10 | N 3.7 | |
| Oggi h: 02:00 | Nuvoloso | 26 | 19 | 65 | 1020 | 10 | N 5.5 | |
| Oggi h: 01:00 | Nuvoloso | 26 | 20 | 69 | 1020 | 10 | S/SE 7.4 | |
| Oggi h: 00:00 | Nuvoloso | 26 | 20 | 69 | 1021 | 10 | N 3.7 | |
| Ieri h: 23:00 | Nuvoloso | 26 | 21 | 73 | 1021 | 10 | S/SO 7.4 | |
| Ieri h: 22:00 | Nuvoloso | 28 | 21 | 65 | 1020 | 10 | N 1.8 | |
| Ieri h: 21:00 | Nuvoloso | 29 | 22 | 66 | 1018 | 10 | E/NE 7.4 | |
| Ieri h: 20:00 | Nuvoloso | 30 | 22 | 62 | 1018 | 10 | S/SO 9.3 | |
| Ieri h: 19:00 | Nuvoloso | 31 | 22 | 58 | 1017 | 10 | N 14.8 | |
| Ieri h: 18:00 | Nuvoloso | 31 | 22 | 58 | 1017 | 10 | N 16.7 | |
| Ieri h: 17:00 | Nuvoloso | 33 | 22 | 52 | 1017 | 10 | N 16.7 | |
| Ieri h: 16:00 | Nuvoloso | 37 | 20 | 37 | 1017 | 10 | N 20.3 | |
| Ieri h: 15:00 | Nuvoloso | 37 | 18 | 32 | 1017 | 10 | N/NO 18.5 | |
| Ieri h: 14:00 | Nuvoloso | 37 | 17 | 30 | 1018 | 10 | N/NO 13 | |



